sensor_id;sensor_type;location;lat;lon;timestamp;temperature;humidity
75985;DHT22;65033;44.660;37.758;2023-11-21T00:00:47;4.98;76.64
75985;DHT22;65033;44.660;37.758;2023-11-21T00:01:54;4.96;76.73
75985;DHT22;65033;44.660;37.758;2023-11-21T00:03:01;4.93;77.31
75985;DHT22;65033;44.660;37.758;2023-11-21T00:04:10;4.92;77.93
75985;DHT22;65033;44.660;37.758;2023-11-21T00:05:44;4.90;77.86
75985;DHT22;65033;44.660;37.758;2023-11-21T00:06:52;4.84;77.44
75985;DHT22;65033;44.660;37.758;2023-11-21T00:07:57;4.84;77.78
75985;DHT22;65033;44.660;37.758;2023-11-21T00:09:05;4.83;77.35
75985;DHT22;65033;44.660;37.758;2023-11-21T00:10:14;4.79;77.12
75985;DHT22;65033;44.660;37.758;2023-11-21T00:11:23;4.78;77.50
75985;DHT22;65033;44.660;37.758;2023-11-21T00:12:28;4.80;77.69
75985;DHT22;65033;44.660;37.758;2023-11-21T00:13:33;4.82;77.98
75985;DHT22;65033;44.660;37.758;2023-11-21T00:14:40;4.80;77.40
75985;DHT22;65033;44.660;37.758;2023-11-21T00:15:44;4.80;77.56
75985;DHT22;65033;44.660;37.758;2023-11-21T00:16:52;4.79;77.91
75985;DHT22;65033;44.660;37.758;2023-11-21T00:18:00;4.76;77.64
75985;DHT22;65033;44.660;37.758;2023-11-21T00:19:04;4.74;77.45
75985;DHT22;65033;44.660;37.758;2023-11-21T00:20:09;4.76;77.68
75985;DHT22;65033;44.660;37.758;2023-11-21T00:21:17;4.76;78.01
75985;DHT22;65033;44.660;37.758;2023-11-21T00:22:26;4.78;78.01
75985;DHT22;65033;44.660;37.758;2023-11-21T00:23:34;4.80;77.96
75985;DHT22;65033;44.660;37.758;2023-11-21T00:24:40;4.84;77.53
75985;DHT22;65033;44.660;37.758;2023-11-21T00:25:47;4.83;77.15
75985;DHT22;65033;44.660;37.758;2023-11-21T00:26:52;4.83;77.89
75985;DHT22;65033;44.660;37.758;2023-11-21T00:27:58;4.81;76.97
75985;DHT22;65033;44.660;37.758;2023-11-21T00:29:06;4.80;77.26
75985;DHT22;65033;44.660;37.758;2023-11-21T00:30:15;4.81;76.94
75985;DHT22;65033;44.660;37.758;2023-11-21T00:31:20;4.81;77.18
75985;DHT22;65033;44.660;37.758;2023-11-21T00:32:25;4.81;76.81
75985;DHT22;65033;44.660;37.758;2023-11-21T00:33:46;4.81;76.33
75985;DHT22;65033;44.660;37.758;2023-11-21T00:34:52;4.83;76.07
75985;DHT22;65033;44.660;37.758;2023-11-21T00:36:00;4.83;76.66
75985;DHT22;65033;44.660;37.758;2023-11-21T00:37:07;4.82;76.71
75985;DHT22;65033;44.660;37.758;2023-11-21T00:38:17;4.84;77.08
75985;DHT22;65033;44.660;37.758;2023-11-21T00:39:28;4.86;77.46
75985;DHT22;65033;44.660;37.758;2023-11-21T00:40:35;4.87;76.82
75985;DHT22;65033;44.660;37.758;2023-11-21T00:41:47;4.91;76.70
75985;DHT22;65033;44.660;37.758;2023-11-21T00:42:52;4.93;76.28
75985;DHT22;65033;44.660;37.758;2023-11-21T00:44:05;4.93;75.90
75985;DHT22;65033;44.660;37.758;2023-11-21T00:45:13;4.92;76.09
75985;DHT22;65033;44.660;37.758;2023-11-21T00:46:33;4.95;76.54
75985;DHT22;65033;44.660;37.758;2023-11-21T00:47:49;5.00;76.21
75985;DHT22;65033;44.660;37.758;2023-11-21T00:49:06;5.06;75.69
75985;DHT22;65033;44.660;37.758;2023-11-21T00:50:23;5.06;75.93
75985;DHT22;65033;44.660;37.758;2023-11-21T00:51:38;5.05;75.76
75985;DHT22;65033;44.660;37.758;2023-11-21T00:52:46;5.04;75.67
75985;DHT22;65033;44.660;37.758;2023-11-21T00:53:59;5.07;76.37
75985;DHT22;65033;44.660;37.758;2023-11-21T00:55:13;5.07;76.25
75985;DHT22;65033;44.660;37.758;2023-11-21T00:56:19;5.07;76.65
75985;DHT22;65033;44.660;37.758;2023-11-21T00:57:35;5.06;76.56
75985;DHT22;65033;44.660;37.758;2023-11-21T00:58:44;5.09;76.89
75985;DHT22;65033;44.660;37.758;2023-11-21T01:00:00;5.06;76.92
75985;DHT22;65033;44.660;37.758;2023-11-21T01:01:20;5.05;76.64
75985;DHT22;65033;44.660;37.758;2023-11-21T01:02:35;5.04;76.84
75985;DHT22;65033;44.660;37.758;2023-11-21T01:03:47;5.04;76.85
75985;DHT22;65033;44.660;37.758;2023-11-21T01:05:02;5.02;76.92
75985;DHT22;65033;44.660;37.758;2023-11-21T01:06:11;5.04;77.37
75985;DHT22;65033;44.660;37.758;2023-11-21T01:07:21;5.05;77.08
75985;DHT22;65033;44.660;37.758;2023-11-21T01:08:27;5.06;77.84
75985;DHT22;65033;44.660;37.758;2023-11-21T01:09:36;5.06;77.36
75985;DHT22;65033;44.660;37.758;2023-11-21T01:10:50;5.06;77.57
75985;DHT22;65033;44.660;37.758;2023-11-21T01:11:58;5.05;78.04
75985;DHT22;65033;44.660;37.758;2023-11-21T01:13:06;5.02;78.10
75985;DHT22;65033;44.660;37.758;2023-11-21T01:14:14;5.01;77.89
75985;DHT22;65033;44.660;37.758;2023-11-21T01:15:20;5.01;78.34
75985;DHT22;65033;44.660;37.758;2023-11-21T01:16:30;4.98;78.44
75985;DHT22;65033;44.660;37.758;2023-11-21T01:17:53;5.01;78.58
75985;DHT22;65033;44.660;37.758;2023-11-21T01:19:02;5.02;78.73
75985;DHT22;65033;44.660;37.758;2023-11-21T01:20:11;5.02;78.72
75985;DHT22;65033;44.660;37.758;2023-11-21T01:21:34;5.01;78.93
75985;DHT22;65033;44.660;37.758;2023-11-21T01:23:14;5.03;78.67
75985;DHT22;65033;44.660;37.758;2023-11-21T01:24:50;5.06;78.56
75985;DHT22;65033;44.660;37.758;2023-11-21T01:25:58;5.08;78.93
75985;DHT22;65033;44.660;37.758;2023-11-21T01:27:13;5.08;78.46
75985;DHT22;65033;44.660;37.758;2023-11-21T01:28:24;5.08;78.98
75985;DHT22;65033;44.660;37.758;2023-11-21T01:29:31;5.10;78.89
75985;DHT22;65033;44.660;37.758;2023-11-21T01:30:57;5.08;78.24
75985;DHT22;65033;44.660;37.758;2023-11-21T01:32:15;5.07;78.41
75985;DHT22;65033;44.660;37.758;2023-11-21T01:33:20;5.08;78.66
75985;DHT22;65033;44.660;37.758;2023-11-21T01:34:32;5.06;78.41
75985;DHT22;65033;44.660;37.758;2023-11-21T01:35:41;5.07;78.54
75985;DHT22;65033;44.660;37.758;2023-11-21T01:36:47;5.08;78.83
75985;DHT22;65033;44.660;37.758;2023-11-21T01:38:05;5.07;78.73
75985;DHT22;65033;44.660;37.758;2023-11-21T01:39:16;5.07;78.84
75985;DHT22;65033;44.660;37.758;2023-11-21T01:40:31;5.09;79.00
75985;DHT22;65033;44.660;37.758;2023-11-21T01:41:37;5.07;78.66
75985;DHT22;65033;44.660;37.758;2023-11-21T01:42:43;5.08;78.42
75985;DHT22;65033;44.660;37.758;2023-11-21T01:44:04;5.07;78.41
75985;DHT22;65033;44.660;37.758;2023-11-21T01:45:29;5.09;78.64
75985;DHT22;65033;44.660;37.758;2023-11-21T01:46:38;5.08;78.66
75985;DHT22;65033;44.660;37.758;2023-11-21T01:47:54;5.09;78.43
75985;DHT22;65033;44.660;37.758;2023-11-21T01:49:05;5.09;78.20
75985;DHT22;65033;44.660;37.758;2023-11-21T01:50:16;5.06;78.15
75985;DHT22;65033;44.660;37.758;2023-11-21T01:51:29;5.09;78.27
75985;DHT22;65033;44.660;37.758;2023-11-21T01:52:43;5.10;78.05
75985;DHT22;65033;44.660;37.758;2023-11-21T01:53:47;5.11;76.56
75985;DHT22;65033;44.660;37.758;2023-11-21T01:54:55;5.10;77.47
75985;DHT22;65033;44.660;37.758;2023-11-21T01:56:14;5.10;76.64
75985;DHT22;65033;44.660;37.758;2023-11-21T01:57:21;5.12;77.20
75985;DHT22;65033;44.660;37.758;2023-11-21T01:58:32;5.12;76.57
75985;DHT22;65033;44.660;37.758;2023-11-21T01:59:45;5.17;76.69
75985;DHT22;65033;44.660;37.758;2023-11-21T02:00:56;5.15;76.22
75985;DHT22;65033;44.660;37.758;2023-11-21T02:02:07;5.13;76.63
75985;DHT22;65033;44.660;37.758;2023-11-21T02:03:28;5.11;76.76
75985;DHT22;65033;44.660;37.758;2023-11-21T02:04:32;5.10;76.95
75985;DHT22;65033;44.660;37.758;2023-11-21T02:05:38;5.07;76.92
75985;DHT22;65033;44.660;37.758;2023-11-21T02:06:42;5.09;76.86
75985;DHT22;65033;44.660;37.758;2023-11-21T02:07:49;5.08;76.94
75985;DHT22;65033;44.660;37.758;2023-11-21T02:08:56;5.12;77.15
75985;DHT22;65033;44.660;37.758;2023-11-21T02:10:07;5.11;77.42
75985;DHT22;65033;44.660;37.758;2023-11-21T02:11:25;5.11;77.37
75985;DHT22;65033;44.660;37.758;2023-11-21T02:12:32;5.17;76.31
75985;DHT22;65033;44.660;37.758;2023-11-21T02:13:39;5.22;76.33
75985;DHT22;65033;44.660;37.758;2023-11-21T02:15:10;5.23;76.73
75985;DHT22;65033;44.660;37.758;2023-11-21T02:16:20;5.24;76.97
75985;DHT22;65033;44.660;37.758;2023-11-21T02:17:30;5.27;76.28
75985;DHT22;65033;44.660;37.758;2023-11-21T02:18:36;5.27;76.34
75985;DHT22;65033;44.660;37.758;2023-11-21T02:19:45;5.25;76.33
75985;DHT22;65033;44.660;37.758;2023-11-21T02:20:51;5.27;76.81
75985;DHT22;65033;44.660;37.758;2023-11-21T02:21:57;5.24;76.86
75985;DHT22;65033;44.660;37.758;2023-11-21T02:23:21;5.23;77.46
75985;DHT22;65033;44.660;37.758;2023-11-21T02:24:26;5.25;77.53
75985;DHT22;65033;44.660;37.758;2023-11-21T02:25:33;5.28;77.31
75985;DHT22;65033;44.660;37.758;2023-11-21T02:26:37;5.30;77.39
75985;DHT22;65033;44.660;37.758;2023-11-21T02:27:42;5.32;77.29
75985;DHT22;65033;44.660;37.758;2023-11-21T02:28:53;5.32;77.21
75985;DHT22;65033;44.660;37.758;2023-11-21T02:29:58;5.30;77.19
75985;DHT22;65033;44.660;37.758;2023-11-21T02:31:05;5.30;77.11
75985;DHT22;65033;44.660;37.758;2023-11-21T02:32:12;5.32;77.27
75985;DHT22;65033;44.660;37.758;2023-11-21T02:33:19;5.31;76.85
75985;DHT22;65033;44.660;37.758;2023-11-21T02:34:25;5.30;76.50
75985;DHT22;65033;44.660;37.758;2023-11-21T02:35:30;5.30;77.06
75985;DHT22;65033;44.660;37.758;2023-11-21T02:36:42;5.27;77.27
75985;DHT22;65033;44.660;37.758;2023-11-21T02:37:48;5.32;76.41
75985;DHT22;65033;44.660;37.758;2023-11-21T02:38:55;5.31;76.53
75985;DHT22;65033;44.660;37.758;2023-11-21T02:40:01;5.34;76.74
75985;DHT22;65033;44.660;37.758;2023-11-21T02:41:12;5.31;76.76
75985;DHT22;65033;44.660;37.758;2023-11-21T02:42:20;5.28;77.07
75985;DHT22;65033;44.660;37.758;2023-11-21T02:43:27;5.27;76.91
75985;DHT22;65033;44.660;37.758;2023-11-21T02:44:32;5.30;77.01
75985;DHT22;65033;44.660;37.758;2023-11-21T02:45:38;5.33;77.13
75985;DHT22;65033;44.660;37.758;2023-11-21T02:46:45;5.34;77.05
75985;DHT22;65033;44.660;37.758;2023-11-21T02:47:54;5.36;76.92
75985;DHT22;65033;44.660;37.758;2023-11-21T02:49:03;5.38;77.68
75985;DHT22;65033;44.660;37.758;2023-11-21T02:50:10;5.39;77.05
75985;DHT22;65033;44.660;37.758;2023-11-21T02:51:31;5.38;76.95
75985;DHT22;65033;44.660;37.758;2023-11-21T02:52:35;5.40;76.92
75985;DHT22;65033;44.660;37.758;2023-11-21T02:53:42;5.38;76.32
75985;DHT22;65033;44.660;37.758;2023-11-21T02:54:59;5.35;76.53
75985;DHT22;65033;44.660;37.758;2023-11-21T02:56:07;5.36;77.10
75985;DHT22;65033;44.660;37.758;2023-11-21T02:57:22;5.39;77.29
75985;DHT22;65033;44.660;37.758;2023-11-21T02:58:30;5.39;76.94
75985;DHT22;65033;44.660;37.758;2023-11-21T02:59:37;5.41;76.78
75985;DHT22;65033;44.660;37.758;2023-11-21T03:00:42;5.41;76.74
75985;DHT22;65033;44.660;37.758;2023-11-21T03:01:55;5.43;77.08
75985;DHT22;65033;44.660;37.758;2023-11-21T03:03:01;5.47;76.58
75985;DHT22;65033;44.660;37.758;2023-11-21T03:04:13;5.42;76.39
75985;DHT22;65033;44.660;37.758;2023-11-21T03:05:34;5.43;76.53
75985;DHT22;65033;44.660;37.758;2023-11-21T03:06:48;5.43;75.99
75985;DHT22;65033;44.660;37.758;2023-11-21T03:07:52;5.42;76.28
75985;DHT22;65033;44.660;37.758;2023-11-21T03:08:58;5.40;76.38
75985;DHT22;65033;44.660;37.758;2023-11-21T03:10:09;5.40;76.82
75985;DHT22;65033;44.660;37.758;2023-11-21T03:11:15;5.40;76.57
75985;DHT22;65033;44.660;37.758;2023-11-21T03:12:21;5.39;77.01
75985;DHT22;65033;44.660;37.758;2023-11-21T03:13:27;5.38;76.84
75985;DHT22;65033;44.660;37.758;2023-11-21T03:14:32;5.37;76.78
75985;DHT22;65033;44.660;37.758;2023-11-21T03:15:42;5.36;76.94
75985;DHT22;65033;44.660;37.758;2023-11-21T03:16:49;5.34;76.82
75985;DHT22;65033;44.660;37.758;2023-11-21T03:17:52;5.34;77.45
75985;DHT22;65033;44.660;37.758;2023-11-21T03:18:57;5.31;77.12
75985;DHT22;65033;44.660;37.758;2023-11-21T03:20:05;5.32;77.11
75985;DHT22;65033;44.660;37.758;2023-11-21T03:21:14;5.32;77.09
75985;DHT22;65033;44.660;37.758;2023-11-21T03:22:19;5.32;77.63
75985;DHT22;65033;44.660;37.758;2023-11-21T03:23:31;5.35;77.69
75985;DHT22;65033;44.660;37.758;2023-11-21T03:24:40;5.30;76.68
75985;DHT22;65033;44.660;37.758;2023-11-21T03:25:48;5.30;76.95
75985;DHT22;65033;44.660;37.758;2023-11-21T03:26:53;5.27;77.05
75985;DHT22;65033;44.660;37.758;2023-11-21T03:27:57;5.28;77.47
75985;DHT22;65033;44.660;37.758;2023-11-21T03:29:06;5.28;77.03
75985;DHT22;65033;44.660;37.758;2023-11-21T03:30:13;5.28;77.46
75985;DHT22;65033;44.660;37.758;2023-11-21T03:31:21;5.27;77.66
75985;DHT22;65033;44.660;37.758;2023-11-21T03:32:25;5.26;77.29
75985;DHT22;65033;44.660;37.758;2023-11-21T03:33:41;5.24;77.21
75985;DHT22;65033;44.660;37.758;2023-11-21T03:35:16;5.25;77.55
75985;DHT22;65033;44.660;37.758;2023-11-21T03:36:21;5.25;77.99
75985;DHT22;65033;44.660;37.758;2023-11-21T03:37:26;5.24;77.89
75985;DHT22;65033;44.660;37.758;2023-11-21T03:38:34;5.25;77.56
75985;DHT22;65033;44.660;37.758;2023-11-21T03:39:41;5.24;78.18
75985;DHT22;65033;44.660;37.758;2023-11-21T03:40:50;5.30;78.21
75985;DHT22;65033;44.660;37.758;2023-11-21T03:41:57;5.33;78.21
75985;DHT22;65033;44.660;37.758;2023-11-21T03:43:03;5.35;77.72
75985;DHT22;65033;44.660;37.758;2023-11-21T03:44:11;5.37;77.69
75985;DHT22;65033;44.660;37.758;2023-11-21T03:45:16;5.38;77.45
75985;DHT22;65033;44.660;37.758;2023-11-21T03:46:25;5.36;77.21
75985;DHT22;65033;44.660;37.758;2023-11-21T03:47:31;5.38;77.17
75985;DHT22;65033;44.660;37.758;2023-11-21T03:48:38;5.37;77.60
75985;DHT22;65033;44.660;37.758;2023-11-21T03:49:44;5.38;76.89
75985;DHT22;65033;44.660;37.758;2023-11-21T03:50:53;5.46;77.11
75985;DHT22;65033;44.660;37.758;2023-11-21T03:51:58;5.52;77.47
75985;DHT22;65033;44.660;37.758;2023-11-21T03:53:03;5.53;76.89
75985;DHT22;65033;44.660;37.758;2023-11-21T03:54:10;5.56;76.63
75985;DHT22;65033;44.660;37.758;2023-11-21T03:55:19;5.54;76.60
75985;DHT22;65033;44.660;37.758;2023-11-21T03:56:28;5.52;76.66
75985;DHT22;65033;44.660;37.758;2023-11-21T03:57:44;5.49;76.62
75985;DHT22;65033;44.660;37.758;2023-11-21T03:58:48;5.48;76.53
75985;DHT22;65033;44.660;37.758;2023-11-21T03:59:52;5.47;76.41
75985;DHT22;65033;44.660;37.758;2023-11-21T04:01:01;5.45;76.69
75985;DHT22;65033;44.660;37.758;2023-11-21T04:02:09;5.45;76.62
75985;DHT22;65033;44.660;37.758;2023-11-21T04:03:20;6.75;95.33
75985;DHT22;65033;44.660;37.758;2023-11-21T04:04:26;6.49;78.69
75985;DHT22;65033;44.660;37.758;2023-11-21T04:05:38;6.35;73.25
75985;DHT22;65033;44.660;37.758;2023-11-21T04:06:55;6.12;73.22
75985;DHT22;65033;44.660;37.758;2023-11-21T04:08:12;5.97;73.84
75985;DHT22;65033;44.660;37.758;2023-11-21T04:09:18;5.85;74.35
75985;DHT22;65033;44.660;37.758;2023-11-21T04:11:25;5.78;75.46
75985;DHT22;65033;44.660;37.758;2023-11-21T04:12:49;5.74;75.45
75985;DHT22;65033;44.660;37.758;2023-11-21T04:14:00;5.68;75.19
75985;DHT22;65033;44.660;37.758;2023-11-21T04:15:46;5.62;75.82
75985;DHT22;65033;44.660;37.758;2023-11-21T04:16:52;5.59;76.28
75985;DHT22;65033;44.660;37.758;2023-11-21T04:18:02;5.59;75.94
75985;DHT22;65033;44.660;37.758;2023-11-21T04:19:38;5.53;76.18
75985;DHT22;65033;44.660;37.758;2023-11-21T04:20:44;5.49;76.17
75985;DHT22;65033;44.660;37.758;2023-11-21T04:21:59;5.48;76.31
75985;DHT22;65033;44.660;37.758;2023-11-21T04:23:19;5.50;76.39
75985;DHT22;65033;44.660;37.758;2023-11-21T04:24:30;5.50;76.47
75985;DHT22;65033;44.660;37.758;2023-11-21T04:26:04;5.51;76.21
75985;DHT22;65033;44.660;37.758;2023-11-21T04:27:19;5.49;75.93
75985;DHT22;65033;44.660;37.758;2023-11-21T04:28:42;5.49;76.01
75985;DHT22;65033;44.660;37.758;2023-11-21T04:29:55;5.49;76.34
75985;DHT22;65033;44.660;37.758;2023-11-21T04:31:03;5.54;76.43
75985;DHT22;65033;44.660;37.758;2023-11-21T04:32:31;5.55;76.05
75985;DHT22;65033;44.660;37.758;2023-11-21T04:34:26;5.56;75.63
75985;DHT22;65033;44.660;37.758;2023-11-21T04:35:30;5.55;75.82
75985;DHT22;65033;44.660;37.758;2023-11-21T04:36:33;5.59;75.66
75985;DHT22;65033;44.660;37.758;2023-11-21T04:37:45;5.56;75.75
75985;DHT22;65033;44.660;37.758;2023-11-21T04:38:49;5.55;75.70
75985;DHT22;65033;44.660;37.758;2023-11-21T04:39:52;6.30;91.70
75985;DHT22;65033;44.660;37.758;2023-11-21T04:40:56;7.99;101.96
75985;DHT22;65033;44.660;37.758;2023-11-21T04:41:59;8.36;105.61
75985;DHT22;65033;44.660;37.758;2023-11-21T04:43:03;7.58;82.70
75985;DHT22;65033;44.660;37.758;2023-11-21T04:44:11;7.33;70.81
75985;DHT22;65033;44.660;37.758;2023-11-21T04:45:15;7.23;69.58
75985;DHT22;65033;44.660;37.758;2023-11-21T04:46:18;7.13;69.62
75985;DHT22;65033;44.660;37.758;2023-11-21T04:47:24;7.01;69.55
75985;DHT22;65033;44.660;37.758;2023-11-21T04:48:28;6.90;70.68
75985;DHT22;65033;44.660;37.758;2023-11-21T04:49:33;6.81;70.35
75985;DHT22;65033;44.660;37.758;2023-11-21T04:50:39;6.70;70.90
75985;DHT22;65033;44.660;37.758;2023-11-21T04:51:46;6.61;71.17
75985;DHT22;65033;44.660;37.758;2023-11-21T04:52:50;6.42;71.16
75985;DHT22;65033;44.660;37.758;2023-11-21T04:53:56;6.30;72.07
75985;DHT22;65033;44.660;37.758;2023-11-21T04:55:00;6.25;72.67
75985;DHT22;65033;44.660;37.758;2023-11-21T04:56:06;6.24;72.78
75985;DHT22;65033;44.660;37.758;2023-11-21T04:57:12;6.12;73.02
75985;DHT22;65033;44.660;37.758;2023-11-21T04:58:15;6.07;73.41
75985;DHT22;65033;44.660;37.758;2023-11-21T04:59:20;6.00;73.62
75985;DHT22;65033;44.660;37.758;2023-11-21T05:00:27;5.97;74.14
75985;DHT22;65033;44.660;37.758;2023-11-21T05:01:32;5.96;74.47
75985;DHT22;65033;44.660;37.758;2023-11-21T05:02:37;5.93;74.46
75985;DHT22;65033;44.660;37.758;2023-11-21T05:03:41;5.87;74.47
75985;DHT22;65033;44.660;37.758;2023-11-21T05:04:45;5.84;74.46
75985;DHT22;65033;44.660;37.758;2023-11-21T05:05:49;5.85;74.70
75985;DHT22;65033;44.660;37.758;2023-11-21T05:06:52;5.86;74.63
75985;DHT22;65033;44.660;37.758;2023-11-21T05:07:56;5.91;73.90
75985;DHT22;65033;44.660;37.758;2023-11-21T05:09:00;5.91;74.41
75985;DHT22;65033;44.660;37.758;2023-11-21T05:10:05;5.94;74.60
75985;DHT22;65033;44.660;37.758;2023-11-21T05:11:24;5.98;74.33
75985;DHT22;65033;44.660;37.758;2023-11-21T05:12:28;6.02;74.05
75985;DHT22;65033;44.660;37.758;2023-11-21T05:13:32;6.04;73.61
75985;DHT22;65033;44.660;37.758;2023-11-21T05:14:38;5.98;73.64
75985;DHT22;65033;44.660;37.758;2023-11-21T05:15:42;5.94;74.22
75985;DHT22;65033;44.660;37.758;2023-11-21T05:16:46;5.92;74.28
75985;DHT22;65033;44.660;37.758;2023-11-21T05:17:50;5.97;73.94
75985;DHT22;65033;44.660;37.758;2023-11-21T05:18:56;5.99;74.23
75985;DHT22;65033;44.660;37.758;2023-11-21T05:20:07;6.02;74.01
75985;DHT22;65033;44.660;37.758;2023-11-21T05:21:15;6.65;89.99
75985;DHT22;65033;44.660;37.758;2023-11-21T05:22:19;7.82;96.26
75985;DHT22;65033;44.660;37.758;2023-11-21T05:23:23;7.97;83.57
75985;DHT22;65033;44.660;37.758;2023-11-21T05:24:27;7.69;69.33
75985;DHT22;65033;44.660;37.758;2023-11-21T05:25:32;7.50;68.25
75985;DHT22;65033;44.660;37.758;2023-11-21T05:26:36;7.16;69.33
75985;DHT22;65033;44.660;37.758;2023-11-21T05:27:40;6.98;69.92
75985;DHT22;65033;44.660;37.758;2023-11-21T05:28:44;6.78;70.77
75985;DHT22;65033;44.660;37.758;2023-11-21T05:29:49;6.71;71.48
75985;DHT22;65033;44.660;37.758;2023-11-21T05:30:54;6.64;71.52
75985;DHT22;65033;44.660;37.758;2023-11-21T05:32:05;6.55;71.58
75985;DHT22;65033;44.660;37.758;2023-11-21T05:33:11;6.51;72.22
75985;DHT22;65033;44.660;37.758;2023-11-21T05:34:15;6.40;72.22
75985;DHT22;65033;44.660;37.758;2023-11-21T05:35:20;6.36;72.68
75985;DHT22;65033;44.660;37.758;2023-11-21T05:36:24;6.27;73.32
75985;DHT22;65033;44.660;37.758;2023-11-21T05:37:28;6.15;73.42
75985;DHT22;65033;44.660;37.758;2023-11-21T05:38:32;6.08;73.57
75985;DHT22;65033;44.660;37.758;2023-11-21T05:39:35;6.01;73.99
75985;DHT22;65033;44.660;37.758;2023-11-21T05:40:39;5.97;74.12
75985;DHT22;65033;44.660;37.758;2023-11-21T05:41:43;5.95;74.43
75985;DHT22;65033;44.660;37.758;2023-11-21T05:42:47;5.94;75.06
75985;DHT22;65033;44.660;37.758;2023-11-21T05:43:53;5.91;75.39
75985;DHT22;65033;44.660;37.758;2023-11-21T05:44:58;5.86;75.38
75985;DHT22;65033;44.660;37.758;2023-11-21T05:46:02;5.84;75.67
75985;DHT22;65033;44.660;37.758;2023-11-21T05:47:06;5.84;75.24
75985;DHT22;65033;44.660;37.758;2023-11-21T05:48:10;5.79;75.46
75985;DHT22;65033;44.660;37.758;2023-11-21T05:49:16;5.76;75.46
75985;DHT22;65033;44.660;37.758;2023-11-21T05:50:20;5.71;75.98
75985;DHT22;65033;44.660;37.758;2023-11-21T05:51:23;5.70;76.02
75985;DHT22;65033;44.660;37.758;2023-11-21T05:52:27;5.66;75.59
75985;DHT22;65033;44.660;37.758;2023-11-21T05:53:31;5.65;75.83
75985;DHT22;65033;44.660;37.758;2023-11-21T05:54:35;5.64;76.26
75985;DHT22;65033;44.660;37.758;2023-11-21T05:55:40;5.63;76.60
75985;DHT22;65033;44.660;37.758;2023-11-21T05:56:44;5.65;76.48
75985;DHT22;65033;44.660;37.758;2023-11-21T05:57:47;5.66;76.72
75985;DHT22;65033;44.660;37.758;2023-11-21T05:58:51;5.68;76.47
75985;DHT22;65033;44.660;37.758;2023-11-21T05:59:55;5.69;76.67
75985;DHT22;65033;44.660;37.758;2023-11-21T06:01:01;5.67;76.15
75985;DHT22;65033;44.660;37.758;2023-11-21T06:02:06;5.70;76.36
75985;DHT22;65033;44.660;37.758;2023-11-21T06:03:11;5.71;75.70
75985;DHT22;65033;44.660;37.758;2023-11-21T06:04:15;5.68;75.92
75985;DHT22;65033;44.660;37.758;2023-11-21T06:05:19;5.68;76.28
75985;DHT22;65033;44.660;37.758;2023-11-21T06:06:25;5.68;76.26
75985;DHT22;65033;44.660;37.758;2023-11-21T06:07:29;5.71;76.74
75985;DHT22;65033;44.660;37.758;2023-11-21T06:08:34;5.68;76.57
75985;DHT22;65033;44.660;37.758;2023-11-21T06:09:38;5.67;76.54
75985;DHT22;65033;44.660;37.758;2023-11-21T06:10:42;5.69;76.15
75985;DHT22;65033;44.660;37.758;2023-11-21T06:11:46;5.67;76.41
75985;DHT22;65033;44.660;37.758;2023-11-21T06:12:50;5.64;76.06
75985;DHT22;65033;44.660;37.758;2023-11-21T06:13:53;5.63;76.53
75985;DHT22;65033;44.660;37.758;2023-11-21T06:14:56;5.64;76.36
75985;DHT22;65033;44.660;37.758;2023-11-21T06:16:01;5.60;76.24
75985;DHT22;65033;44.660;37.758;2023-11-21T06:17:05;5.57;76.46
75985;DHT22;65033;44.660;37.758;2023-11-21T06:18:08;5.59;76.35
75985;DHT22;65033;44.660;37.758;2023-11-21T06:19:14;5.57;76.87
75985;DHT22;65033;44.660;37.758;2023-11-21T06:20:18;5.57;76.76
75985;DHT22;65033;44.660;37.758;2023-11-21T06:21:21;5.57;77.02
75985;DHT22;65033;44.660;37.758;2023-11-21T06:22:25;5.55;77.08
75985;DHT22;65033;44.660;37.758;2023-11-21T06:23:28;5.55;77.02
75985;DHT22;65033;44.660;37.758;2023-11-21T06:24:32;5.54;76.92
75985;DHT22;65033;44.660;37.758;2023-11-21T06:25:35;5.55;76.93
75985;DHT22;65033;44.660;37.758;2023-11-21T06:26:39;5.57;76.66
75985;DHT22;65033;44.660;37.758;2023-11-21T06:27:44;5.59;76.72
75985;DHT22;65033;44.660;37.758;2023-11-21T06:28:48;5.60;76.75
75985;DHT22;65033;44.660;37.758;2023-11-21T06:29:54;5.59;76.83
75985;DHT22;65033;44.660;37.758;2023-11-21T06:30:57;5.59;76.80
75985;DHT22;65033;44.660;37.758;2023-11-21T06:32:09;5.61;76.65
75985;DHT22;65033;44.660;37.758;2023-11-21T06:33:13;5.63;76.53
75985;DHT22;65033;44.660;37.758;2023-11-21T06:34:16;5.65;76.90
75985;DHT22;65033;44.660;37.758;2023-11-21T06:35:20;5.66;77.09
75985;DHT22;65033;44.660;37.758;2023-11-21T06:36:23;5.70;76.74
75985;DHT22;65033;44.660;37.758;2023-11-21T06:37:27;5.72;76.44
75985;DHT22;65033;44.660;37.758;2023-11-21T06:38:31;5.71;76.74
75985;DHT22;65033;44.660;37.758;2023-11-21T06:39:35;5.77;76.16
75985;DHT22;65033;44.660;37.758;2023-11-21T06:40:39;5.76;76.37
75985;DHT22;65033;44.660;37.758;2023-11-21T06:41:44;5.75;76.23
75985;DHT22;65033;44.660;37.758;2023-11-21T06:42:47;5.72;76.19
75985;DHT22;65033;44.660;37.758;2023-11-21T06:43:52;5.70;76.49
75985;DHT22;65033;44.660;37.758;2023-11-21T06:44:56;5.72;76.86
75985;DHT22;65033;44.660;37.758;2023-11-21T06:46:00;5.71;76.47
75985;DHT22;65033;44.660;37.758;2023-11-21T06:47:04;5.70;76.70
75985;DHT22;65033;44.660;37.758;2023-11-21T06:48:11;5.70;76.60
75985;DHT22;65033;44.660;37.758;2023-11-21T06:49:15;5.70;76.28
75985;DHT22;65033;44.660;37.758;2023-11-21T06:50:19;5.68;76.18
75985;DHT22;65033;44.660;37.758;2023-11-21T06:51:23;6.53;92.47
75985;DHT22;65033;44.660;37.758;2023-11-21T06:52:26;7.56;98.10
75985;DHT22;65033;44.660;37.758;2023-11-21T06:53:31;7.02;76.00
75985;DHT22;65033;44.660;37.758;2023-11-21T06:54:37;6.87;72.38
75985;DHT22;65033;44.660;37.758;2023-11-21T06:55:40;6.71;72.40
75985;DHT22;65033;44.660;37.758;2023-11-21T06:56:44;6.54;72.45
75985;DHT22;65033;44.660;37.758;2023-11-21T06:57:48;6.41;73.25
75985;DHT22;65033;44.660;37.758;2023-11-21T06:58:52;6.31;73.96
75985;DHT22;65033;44.660;37.758;2023-11-21T07:00:04;6.21;74.39
75985;DHT22;65033;44.660;37.758;2023-11-21T07:01:11;6.14;74.76
75985;DHT22;65033;44.660;37.758;2023-11-21T07:02:17;6.07;74.77
75985;DHT22;65033;44.660;37.758;2023-11-21T07:03:25;6.01;74.73
75985;DHT22;65033;44.660;37.758;2023-11-21T07:04:30;6.01;75.67
75985;DHT22;65033;44.660;37.758;2023-11-21T07:05:35;5.98;75.38
75985;DHT22;65033;44.660;37.758;2023-11-21T07:06:49;5.95;75.15
75985;DHT22;65033;44.660;37.758;2023-11-21T07:07:55;5.91;75.38
75985;DHT22;65033;44.660;37.758;2023-11-21T07:08:59;5.87;75.15
75985;DHT22;65033;44.660;37.758;2023-11-21T07:10:05;5.87;75.50
75985;DHT22;65033;44.660;37.758;2023-11-21T07:11:11;5.91;75.72
75985;DHT22;65033;44.660;37.758;2023-11-21T07:12:17;6.49;90.05
75985;DHT22;65033;44.660;37.758;2023-11-21T07:13:22;6.94;85.52